Latest Weather Observations for Scherger

IDQ60801

Issued at 7:35 pm EST Wednesday 23 July 2014 (issued every 30 minutes, with the page automatically refreshed every 10 minutes)

About weather observations | Map of weather stations | Latest weather observations for QLD | Other Formats
Station Details ID: 027075 Name: SCHERGER RAAF Lat: -12.62 Lon: 142.09 Height: 39.34 m
Data from the previous 72 hours. | See also: Recent months at Scherger
Date/Time
EST
Temp
°C
App
Temp
°C
Dew
Point
Rel
Hum
%
Delta-T
°C
Wind Press
QNH
hPa
Press
MSL
hPa
Rain
since 9 am
mm
Dir
 
Spd
km/h
Gust
km/h
Spd
kts
Gust
kts
23/07:30pm 24.2 23.5 13.1 50 6.4 E 9 17 5 9 1012.6 - 0.0
23/07:00pm 24.9 23.7 12.8 47 7.0 E 11 20 6 11 1012.3 - 0.0
23/06:30pm 25.7 24.5 12.9 45 7.4 E 11 20 6 11 1011.9 - 0.0
23/06:00pm 26.4 24.9 13.2 44 7.7 E 13 20 7 11 1011.6 1011.4 0.0
23/05:30pm 27.7 27.0 13.3 41 8.5 E 9 19 5 10 1011.3 - 0.0
23/05:00pm 28.3 26.6 12.6 38 9.2 E 13 19 7 10 1011.0 - 0.0
23/04:30pm 29.1 27.9 12.9 37 9.6 E 11 20 6 11 1010.9 - 0.0
23/04:00pm 29.3 27.3 12.7 36 9.8 E 15 26 8 14 1010.8 - 0.0
23/03:30pm 29.6 28.3 12.5 35 10.1 ENE 11 22 6 12 1010.9 - 0.0
23/03:00pm 30.0 28.2 13.3 36 10.0 E 15 24 8 13 1011.0 1010.8 0.0
23/02:30pm 30.0 28.3 13.7 37 9.8 ENE 15 30 8 16 1011.3 - 0.0
23/02:00pm 29.0 27.9 14.4 41 8.8 ESE 13 20 7 11 1011.6 - 0.0
23/01:30pm 29.5 28.0 14.1 39 9.3 E 15 24 8 13 1012.0 - 0.0
23/01:00pm 28.7 26.4 14.1 40 8.8 E 19 30 10 16 1012.6 - 0.0
23/12:30pm 28.2 26.4 13.3 40 8.8 ESE 15 32 8 17 1013.2 - 0.0
23/12:00pm 28.1 25.7 12.8 38 9.0 E 17 30 9 16 1013.7 1013.5 0.0
23/11:30am 28.0 26.6 14.6 44 8.1 ESE 15 32 8 17 1014.3 - 0.0
23/11:00am 27.2 26.2 15.6 49 7.1 E 15 26 8 14 1014.9 - 0.0
23/10:30am 26.4 24.7 15.8 52 6.5 ESE 19 28 10 15 1015.2 - 0.0
23/10:00am 25.6 25.0 16.7 58 5.5 E 15 22 8 12 1015.6 - 0.0
23/09:30am 23.8 24.0 16.8 65 4.3 E 11 19 6 10 1015.8 - 0.0
23/09:00am 22.8 23.5 17.0 70 3.6 SE 9 13 5 7 1016.0 1015.9 0.0
23/08:30am 20.7 21.5 17.3 81 2.1 SE 9 15 5 8 1016.0 - 0.0
23/08:00am 18.6 20.7 17.1 91 0.9 S 2 6 1 3 1015.9 - 0.0
23/07:30am 17.0 17.7 16.0 94 0.6 SSE 7 11 4 6 1015.7 - 0.0
23/07:00am 16.1 16.6 15.0 93 0.6 SSE 6 7 3 4 1015.4 - 0.0
23/06:30am 16.1 17.8 15.1 94 0.6 CALM 0 0 0 0 1015.2 - 0.0
23/06:00am 15.5 16.8 14.0 91 0.8 CALM 0 0 0 0 1015.0 1014.8 0.0
23/05:30am 15.9 17.5 14.8 93 0.6 CALM 0 0 0 0 1014.9 - 0.0
23/05:00am 15.6 17.0 14.3 92 0.7 CALM 0 0 0 0 1014.7 - 0.0
23/04:30am 15.7 17.1 14.4 92 0.7 CALM 0 0 0 0 1014.4 - 0.0
23/04:00am 15.8 17.1 14.2 90 0.9 CALM 0 0 0 0 1014.5 - 0.0
23/03:30am 15.9 17.2 14.1 89 1.0 CALM 0 0 0 0 1014.7 - 0.0
23/03:00am 16.6 18.2 14.8 89 1.0 CALM 0 0 0 0 1014.8 1014.6 0.0
23/02:30am 17.0 18.6 14.8 87 1.3 CALM 0 0 0 0 1015.0 - 0.0
23/02:00am 17.9 19.6 15.3 85 1.5 CALM 0 2 0 1 1015.3 - 0.0
23/01:30am 18.4 19.0 15.8 85 1.5 SSE 7 11 4 6 1015.2 - 0.0
23/01:00am 18.8 18.7 16.0 84 1.7 SSE 11 15 6 8 1015.4 - 0.0
23/12:30am 19.1 19.4 16.0 82 1.8 SE 9 13 5 7 1015.8 - 0.0
23/12:00am 19.3 19.9 15.8 80 2.1 SE 7 11 4 6 1015.9 1015.8 0.0
 
Date/Time
EST
Temp
°C
App
Temp
°C
Dew
Point
Rel
Hum
%
Delta-T
°C
Wind Press
QNH
hPa
Press
MSL
hPa
Rain
since 9 am
mm
Dir
 
Spd
km/h
Gust
km/h
Spd
kts
Gust
kts
22/11:30pm 19.2 19.5 15.1 77 2.4 SE 7 11 4 6 1015.8 - 0.0
22/11:00pm 19.6 19.8 14.6 73 2.9 SSE 7 13 4 7 1015.7 - 0.0
22/10:30pm 20.3 20.2 14.9 71 3.2 SSE 9 13 5 7 1015.8 - 0.0
22/10:00pm 21.1 20.6 15.0 68 3.6 SE 11 17 6 9 1015.9 - 0.0
22/09:30pm 21.3 20.3 14.5 65 4.0 ESE 13 20 7 11 1015.8 - 0.0
22/09:00pm 21.7 20.9 13.9 61 4.5 ESE 11 17 6 9 1015.6 1015.4 0.0
22/08:30pm 21.8 21.1 13.2 58 4.9 E 9 13 5 7 1015.5 - 0.0
22/08:00pm 22.3 21.6 13.1 56 5.3 ESE 9 13 5 7 1015.1 - 0.0
22/07:30pm 23.0 22.2 12.9 53 5.8 E 9 13 5 7 1014.7 - 0.0
22/07:00pm 24.0 22.8 12.9 50 6.4 E 11 17 6 9 1014.3 - 0.0
22/06:30pm 24.7 23.8 12.6 47 7.0 E 9 13 5 7 1013.8 - 0.0
22/06:00pm 25.7 24.0 12.5 44 7.6 E 13 22 7 12 1013.5 1013.3 0.0
22/05:30pm 26.7 25.7 12.4 41 8.3 E 9 15 5 8 1013.2 - 0.0
22/05:00pm 28.1 26.4 12.4 37 9.2 E 13 28 7 15 1013.1 - 0.0
22/04:30pm 27.8 26.4 12.2 38 9.1 E 11 15 6 8 1013.0 - 0.0
22/04:00pm 28.9 27.2 12.3 36 9.7 E 13 24 7 13 1012.8 - 0.0
22/03:30pm 29.9 28.3 12.8 35 10.1 E 13 26 7 14 1012.7 - 0.0
22/03:00pm 29.1 26.9 12.1 35 9.9 E 15 28 8 15 1012.9 1012.7 0.0
22/02:30pm 28.5 26.4 13.6 40 8.9 ESE 17 24 9 13 1013.2 - 0.0
22/02:00pm 29.0 26.9 13.6 38 9.2 E 17 30 9 16 1013.6 - 0.0
22/01:30pm 28.8 27.8 14.6 42 8.6 ESE 13 22 7 12 1014.2 - 0.0
22/01:00pm 28.8 26.9 14.2 40 8.8 E 17 30 9 16 1014.8 - 0.0
22/12:30pm 28.4 25.9 13.5 40 8.9 E 19 33 10 18 1015.6 - 0.0
22/12:00pm 28.0 25.9 13.5 41 8.6 E 17 28 9 15 1016.1 1016.0 0.0
22/11:30am 26.8 24.3 13.5 44 7.9 E 19 30 10 16 1016.7 - 0.0
22/11:00am 27.1 25.6 14.1 44 7.8 E 15 24 8 13 1017.0 - 0.0
22/10:30am 26.1 25.8 16.4 55 6.0 E 13 20 7 11 1017.4 - 0.0
22/10:00am 24.3 23.4 15.8 59 5.2 E 15 24 8 13 1017.8 - 0.0
22/09:30am 24.1 23.7 16.1 61 4.9 E 13 20 7 11 1018.0 - 0.0
22/09:00am 23.0 23.1 16.5 67 4.0 ESE 11 20 6 11 1018.0 1017.9 0.0
22/08:30am 21.7 21.5 16.6 73 3.1 ESE 13 19 7 10 1017.8 - 0.0
22/08:00am 19.8 20.2 16.3 80 2.1 SE 9 15 5 8 1017.4 - 0.0
22/07:30am 18.4 18.7 16.0 86 1.4 SSE 9 13 5 7 1017.1 - 0.0
22/07:00am 17.7 18.3 15.9 89 1.1 SE 7 11 4 6 1016.8 - 0.0
22/06:30am 17.4 17.8 15.4 88 1.2 SE 7 11 4 6 1016.7 - 0.0
22/06:00am 17.7 18.2 15.5 87 1.3 SSE 7 11 4 6 1016.3 1016.2 0.0
22/05:30am 17.9 18.4 15.5 86 1.4 SE 7 11 4 6 1016.1 - 0.0
22/05:00am 18.3 18.5 15.7 85 1.5 SE 9 15 5 8 1015.9 - 0.0
22/04:30am 18.5 19.0 15.6 83 1.7 SE 7 13 4 7 1015.8 - 0.0
22/04:00am 19.0 19.3 15.9 82 1.8 ESE 9 15 5 8 1015.7 - 0.0
22/03:30am 19.2 19.5 15.9 81 2.0 ESE 9 15 5 8 1015.6 - 0.0
22/03:00am 19.5 19.8 16.0 80 2.1 SE 9 17 5 9 1015.8 1015.7 0.0
22/02:30am 19.7 20.4 16.0 79 2.2 SE 7 13 4 7 1015.9 - 0.0
22/02:00am 19.8 20.1 16.1 79 2.2 SE 9 17 5 9 1016.1 - 0.0
22/01:30am 20.0 19.8 15.8 77 2.5 SE 11 17 6 9 1016.0 - 0.0
22/01:00am 20.1 19.5 15.7 76 2.6 ESE 13 20 7 11 1016.2 - 0.0
22/12:30am 19.9 19.9 15.3 75 2.7 SE 9 15 5 8 1016.3 - 0.0
22/12:00am 20.1 19.4 15.5 75 2.7 SE 13 20 7 11 1016.5 1016.4 0.0
 
Date/Time
EST
Temp
°C
App
Temp
°C
Dew
Point
Rel
Hum
%
Delta-T
°C
Wind Press
QNH
hPa
Press
MSL
hPa
Rain
since 9 am
mm
Dir
 
Spd
km/h
Gust
km/h
Spd
kts
Gust
kts
21/11:30pm 20.4 19.8 15.6 74 2.9 SE 13 17 7 9 1016.8 - 0.0
21/11:00pm 20.7 20.0 15.5 72 3.1 SE 13 20 7 11 1016.9 - 0.0
21/10:30pm 20.8 20.9 15.6 72 3.1 SE 9 15 5 8 1017.1 - 0.0
21/10:00pm 21.2 20.9 15.5 70 3.4 ESE 11 17 6 9 1017.2 - 0.0
21/09:30pm 21.5 21.3 15.6 69 3.5 ESE 11 17 6 9 1017.1 - 0.0
21/09:00pm 21.7 21.7 15.1 66 3.9 ESE 9 13 5 7 1016.7 1016.6 0.0
21/08:30pm 22.3 21.7 14.7 62 4.5 ESE 11 20 6 11 1016.5 - 0.0
21/08:00pm 22.5 22.5 14.1 59 4.9 ESE 7 11 4 6 1016.3 - 0.0
21/07:30pm 23.1 23.0 13.8 55 5.4 E 7 13 4 7 1016.0 - 0.0
21/07:00pm 23.9 23.1 14.0 54 5.8 E 11 20 6 11 1015.5 - 0.0
21/06:30pm 24.6 23.6 13.5 50 6.5 E 11 20 6 11 1015.2 - 0.0
21/06:00pm 25.6 24.5 13.1 46 7.3 E 11 20 6 11 1014.7 1014.5 0.0
21/05:30pm 26.7 24.7 12.7 42 8.2 ENE 15 26 8 14 1014.3 - 0.0
21/05:00pm 27.5 26.1 13.4 41 8.3 E 13 22 7 12 1014.0 - 0.0
21/04:30pm 27.9 26.5 13.4 40 8.6 E 13 24 7 13 1013.7 - 0.0
21/04:00pm 28.5 27.4 13.2 39 9.1 E 11 19 6 10 1013.4 - 0.0
21/03:30pm 29.4 27.7 13.6 38 9.4 E 15 28 8 15 1013.4 - 0.0
21/03:00pm 29.3 27.0 13.1 37 9.6 ENE 17 30 9 16 1013.5 1013.3 0.0
21/02:30pm 29.4 27.6 13.2 37 9.6 ENE 15 22 8 12 1013.8 - 0.0
21/02:00pm 28.9 26.7 13.2 38 9.3 NE 17 26 9 14 1014.1 - 0.0
21/01:30pm 28.3 26.7 13.8 41 8.7 SE 15 26 8 14 1014.5 - 0.0
21/01:00pm 27.4 26.0 14.4 45 7.8 SE 15 26 8 14 1015.0 - 0.0
21/12:30pm 27.2 25.7 14.2 44 7.8 E 15 30 8 16 1015.6 - 0.0
21/12:00pm 27.1 26.2 14.8 47 7.4 E 13 22 7 12 1016.2 1016.1 0.0
21/11:30am 26.7 25.0 14.8 48 7.2 E 17 33 9 18 1016.7 - 0.0
21/11:00am 26.1 25.1 15.5 52 6.4 E 15 26 8 14 1017.1 - 0.0
21/10:30am 25.4 23.8 15.1 53 6.2 ESE 17 28 9 15 1017.3 - 0.0
21/10:00am 25.0 23.9 15.3 55 5.9 ESE 15 28 8 15 1017.6 - 0.0
21/09:30am 24.4 23.8 15.6 58 5.3 E 13 22 7 12 1017.7 - 0.0
21/09:00am 22.9 22.7 15.7 64 4.3 ESE 11 20 6 11 1017.7 1017.6 0.0
21/08:30am 21.4 21.0 16.1 72 3.2 ESE 13 20 7 11 1017.5 - 0.0
21/08:00am 19.6 19.5 15.9 79 2.2 ESE 11 17 6 9 1017.3 - 0.0
21/07:30am 18.2 18.7 15.5 84 1.6 ESE 7 11 4 6 1017.1 - 0.0
21/07:00am 17.8 17.9 15.4 86 1.4 SE 9 15 5 8 1016.7 - 0.0
21/06:30am 18.1 18.2 15.4 84 1.6 SE 9 15 5 8 1016.2 - 0.0
21/06:00am 18.3 18.5 15.7 85 1.5 SE 9 17 5 9 1015.9 1015.8 0.0
21/05:30am 17.9 18.0 15.5 86 1.4 SE 9 15 5 8 1015.7 - 0.0
21/05:00am 17.6 17.7 15.6 88 1.2 SE 9 15 5 8 1015.8 - 0.0
21/04:30am 17.4 17.9 15.6 89 1.1 SE 7 11 4 6 1015.8 - 0.0
21/04:00am 17.4 17.9 15.6 89 1.1 SE 7 11 4 6 1015.9 - 0.0
21/03:30am 17.7 17.8 15.5 87 1.3 SE 9 13 5 7 1016.0 - 0.0
21/03:00am 18.3 18.2 15.9 86 1.4 SE 11 17 6 9 1016.1 1016.0 0.0
21/02:30am 18.5 18.7 15.7 84 1.7 SE 9 13 5 7 1016.2 - 0.0
21/02:00am 18.8 19.0 15.7 82 1.8 SE 9 13 5 7 1016.3 - 0.0
21/01:30am 19.0 19.3 15.9 82 1.8 SE 9 15 5 8 1016.4 - 0.0
21/01:00am 19.4 19.2 15.7 79 2.2 SE 11 17 6 9 1016.5 - 0.0
21/12:30am 19.9 19.8 16.0 78 2.3 SE 11 17 6 9 1016.4 - 0.0
21/12:00am 20.0 19.8 15.8 77 2.5 ESE 11 17 6 9 1016.4 1016.3 0.0
 
Date/Time
EST
Temp
°C
App
Temp
°C
Dew
Point
Rel
Hum
%
Delta-T
°C
Wind Press
QNH
hPa
Press
MSL
hPa
Rain
since 9 am
mm
Dir
 
Spd
km/h
Gust
km/h
Spd
kts
Gust
kts
20/11:30pm 19.9 20.1 15.7 77 2.5 ESE 9 15 5 8 1016.7 - 0.0
20/11:00pm 20.1 20.6 15.5 75 2.7 ESE 7 13 4 7 1016.9 - 0.0
20/10:30pm 20.4 20.5 15.6 74 2.9 ESE 9 19 5 10 1017.1 - 0.0
20/10:00pm 20.5 21.1 15.3 72 3.1 SE 6 7 3 4 1017.0 - 0.0
20/09:30pm 21.2 21.8 15.3 69 3.5 ESE 6 11 3 6 1016.9 - 0.0
20/09:00pm 21.8 21.9 15.4 67 3.8 E 9 15 5 8 1016.7 1016.6 0.0
20/08:30pm 22.3 22.7 15.4 65 4.1 E 7 13 4 7 1016.3 - 0.0
20/08:00pm 22.9 22.6 15.5 63 4.4 E 11 22 6 12 1016.0 - 0.0

Other Formats:

Comma delimited format used in spreadsheet applications
http://www.bom.gov.au/fwo/IDQ60801/IDQ60801.94171.axf

JavaScript Object Notation format (JSON) in row-major order
http://www.bom.gov.au/fwo/IDQ60801/IDQ60801.94171.json